Time;durP1;ratioP1;P1;durP2;ratioP2;P2;SDS_P1;SDS_P2;PMS_P1;PMS_P2;Temp;Humidity;BMP_temperature;BMP_pressure;BME280_temperature;BME280_humidity;BME280_pressure;Samples;Min_cycle;Max_cycle;Signal;HPM_P1;HPM_P2
2023/06/07 00:00:10;;;;;;;3.57;3.17;;;;;;;15.96;91.86;98166.47;5073615;28;20227;-75
2023/06/07 00:02:38;;;;;;;6.03;3.37;;;;;;;15.98;92.27;98161.69;5073493;28;20311;-75
2023/06/07 00:05:05;;;;;;;3.50;3.20;;;;;;;16.10;90.54;98162.34;5073603;28;20295;-75
2023/06/07 00:07:32;;;;;;;4.47;2.80;;;;;;;16.15;89.87;98165.09;5073523;28;20224;-75
2023/06/07 00:09:58;;;;;;;4.23;3.10;;;;;;;16.14;89.71;98163.47;5074749;28;20215;-75
2023/06/07 00:12:25;;;;;;;3.20;2.90;;;;;;;15.99;90.30;98162.50;5077631;28;20283;-75
2023/06/07 00:14:52;;;;;;;3.80;3.13;;;;;;;15.86;91.10;98169.06;5077515;28;20200;-75
2023/06/07 00:17:18;;;;;;;3.53;2.73;;;;;;;15.65;93.35;98164.47;5077206;28;20232;-75
2023/06/07 00:19:45;;;;;;;4.27;2.90;;;;;;;15.58;95.15;98163.03;5077432;28;20212;-75
2023/06/07 00:22:12;;;;;;;3.30;3.00;;;;;;;15.58;95.95;98163.03;5077188;28;20227;-75
2023/06/07 00:24:39;;;;;;;3.40;3.10;;;;;;;15.53;95.19;98158.44;5076954;28;20729;-75
2023/06/07 00:27:06;;;;;;;3.27;2.97;;;;;;;15.46;96.59;98160.47;5077269;28;20247;-75
2023/06/07 00:29:32;;;;;;;3.00;2.80;;;;;;;15.46;95.78;98160.47;5077167;28;20213;-75
2023/06/07 00:31:59;;;;;;;3.10;2.90;;;;;;;15.44;95.76;98161.78;5077135;28;20571;-75
2023/06/07 00:34:25;;;;;;;3.63;2.60;;;;;;;15.33;96.64;98160.78;5076795;28;20670;-75
2023/06/07 00:36:51;;;;;;;3.53;3.13;;;;;;;15.39;96.46;98151.81;5076680;28;20590;-75
2023/06/07 00:39:18;;;;;;;4.87;3.10;;;;;;;15.45;96.37;98153.50;5076760;28;20682;-75
2023/06/07 00:41:44;;;;;;;3.10;2.90;;;;;;;15.38;97.43;98147.50;5076970;28;20220;-75
2023/06/07 00:44:12;;;;;;;5.00;3.40;;;;;;;15.40;96.60;98148.06;5076731;28;20243;-75
2023/06/07 00:46:39;;;;;;;3.93;3.20;;;;;;;15.24;97.83;98151.56;5076894;28;20614;-75
2023/06/07 00:49:05;;;;;;;3.00;2.80;;;;;;;15.08;99.61;98156.94;5076740;28;20216;-75
2023/06/07 00:51:32;;;;;;;3.50;3.20;;;;;;;15.12;99.67;98156.22;5076850;28;20243;-75
2023/06/07 00:54:03;;;;;;;3.10;2.90;;;;;;;15.20;98.81;98158.44;5076783;28;20201;-75
2023/06/07 00:56:30;;;;;;;5.13;3.23;;;;;;;15.15;99.59;98157.59;5076637;28;20224;-75
2023/06/07 00:58:57;;;;;;;4.00;3.10;;;;;;;15.13;99.37;98144.44;5076717;28;20204;-75
2023/06/07 01:01:23;;;;;;;4.57;3.60;;;;;;;15.20;98.87;98149.63;5076690;28;20212;-75
2023/06/07 01:03:49;;;;;;;4.87;3.30;;;;;;;15.16;99.11;98156.53;5076531;28;20224;-75
2023/06/07 01:06:16;;;;;;;4.93;3.33;;;;;;;15.26;98.09;98154.81;5076156;28;20707;-75
2023/06/07 01:08:43;;;;;;;3.33;3.00;;;;;;;15.21;98.42;98162.78;5076509;28;20216;-75
2023/06/07 01:11:11;;;;;;;3.60;3.30;;;;;;;15.17;98.44;98156.28;5076352;28;20200;-75
2023/06/07 01:13:38;;;;;;;3.97;3.40;;;;;;;15.25;97.73;98158.53;5076027;28;20562;-75
2023/06/07 01:16:05;;;;;;;6.10;3.20;;;;;;;15.17;98.28;98160.81;5076346;28;20235;-75
2023/06/07 01:18:32;;;;;;;3.97;3.03;;;;;;;15.04;99.10;98159.28;5076311;28;20201;-75
2023/06/07 01:21:00;;;;;;;3.47;3.13;;;;;;;15.02;99.09;98153.34;5075350;28;20258;-75
2023/06/07 01:23:31;;;;;;;4.93;3.77;;;;;;;15.04;99.56;98150.44;5075467;28;20809;-75
2023/06/07 01:25:59;;;;;;;3.20;2.90;;;;;;;15.07;99.72;98152.63;5076270;28;20256;-75
2023/06/07 01:28:27;;;;;;;4.83;3.20;;;;;;;15.06;100.00;98151.81;5076159;28;20254;-75
2023/06/07 01:30:57;;;;;;;4.77;3.70;;;;;;;15.09;99.68;98151.34;5076075;28;20211;-75
2023/06/07 01:33:24;;;;;;;4.20;3.03;;;;;;;15.02;100.00;98153.34;5076122;28;20208;-75
2023/06/07 01:35:53;;;;;;;4.60;3.30;;;;;;;15.01;100.00;98149.06;5075930;28;20230;-75
2023/06/07 01:38:22;;;;;;;4.23;3.27;;;;;;;14.98;100.00;98146.91;5075621;28;20667;-75
2023/06/07 01:40:51;;;;;;;3.80;3.50;;;;;;;15.04;100.00;98145.91;5075596;28;20223;-75
2023/06/07 01:43:19;;;;;;;3.20;2.90;;;;;;;15.03;100.00;98155.00;5075808;28;20231;-75
2023/06/07 01:45:46;;;;;;;3.17;2.97;;;;;;;14.95;100.00;98143.88;5074484;28;20662;-75
2023/06/07 01:48:12;;;;;;;3.80;3.33;;;;;;;14.91;100.00;98148.91;5075454;28;20563;-75
2023/06/07 01:50:39;;;;;;;3.53;3.23;;;;;;;14.95;100.00;98141.19;5075833;28;20575;-75
2023/06/07 01:53:05;;;;;;;4.00;3.30;;;;;;;14.94;100.00;98144.94;5075434;28;20200;-75
2023/06/07 01:55:32;;;;;;;4.03;3.53;;;;;;;14.98;100.00;98140.72;5075386;28;20596;-75
2023/06/07 01:58:29;;;;;;;3.87;3.40;;;;;;;14.89;100.00;98137.66;5075535;28;20209;-75
2023/06/07 02:01:16;;;;;;;3.97;3.30;;;;;;;14.85;100.00;98131.16;5074875;28;20208;-75
2023/06/07 02:03:48;;;;;;;3.50;3.20;;;;;;;14.90;100.00;98138.44;5075465;28;20243;-75
2023/06/07 02:06:20;;;;;;;4.10;3.17;;;;;;;14.90;100.00;98135.75;5075309;28;20229;-75
2023/06/07 02:08:48;;;;;;;4.57;3.40;;;;;;;14.92;100.00;98125.63;5075189;28;20193;-75
2023/06/07 02:11:17;;;;;;;5.87;3.83;;;;;;;14.90;100.00;98133.09;5074612;28;20702;-75
2023/06/07 02:13:44;;;;;;;6.20;3.50;;;;;;;14.87;100.00;98134.38;5074840;28;20200;-75
2023/06/07 02:16:12;;;;;;;5.27;3.40;;;;;;;14.90;100.00;98125.88;5074872;28;20259;-75
2023/06/07 02:18:40;;;;;;;4.93;3.37;;;;;;;14.80;100.00;98131.09;5074996;28;20584;-75
2023/06/07 02:21:10;;;;;;;3.87;3.47;;;;;;;14.71;100.00;98126.38;5074843;28;20254;-75
2023/06/07 02:23:37;;;;;;;3.57;3.27;;;;;;;14.68;100.00;98126.84;5074584;28;20228;-75
2023/06/07 02:26:04;;;;;;;4.17;3.60;;;;;;;14.59;100.00;98121.09;5074600;28;20224;-75
2023/06/07 02:28:30;;;;;;;3.90;3.27;;;;;;;14.47;100.00;98133.72;5074911;28;20223;-75
2023/06/07 02:30:57;;;;;;;4.03;3.73;;;;;;;14.32;100.00;98135.31;5074449;28;20701;-75
2023/06/07 02:33:25;;;;;;;3.90;3.50;;;;;;;14.29;100.00;98136.59;5074467;28;20200;-75
2023/06/07 02:35:51;;;;;;;6.43;3.70;;;;;;;14.27;100.00;98130.69;5074724;28;20278;-75
2023/06/07 02:38:17;;;;;;;3.27;3.00;;;;;;;14.20;100.00;98137.22;5074715;28;20219;-75
2023/06/07 02:40:44;;;;;;;3.43;3.13;;;;;;;14.21;100.00;98126.31;5074653;28;20212;-74
2023/06/07 02:43:10;;;;;;;4.90;3.63;;;;;;;14.18;100.00;98134.78;5074530;28;20227;-74
2023/06/07 02:45:36;;;;;;;5.27;3.80;;;;;;;14.19;100.00;98139.06;5074296;28;20715;-74
2023/06/07 02:48:03;;;;;;;7.77;3.87;;;;;;;14.11;100.00;98139.44;5074246;28;20211;-75
2023/06/07 02:50:29;;;;;;;4.57;3.30;;;;;;;13.96;100.00;98139.16;5074465;28;20215;-75
2023/06/07 02:52:56;;;;;;;5.47;3.30;;;;;;;13.95;100.00;98144.75;5074483;28;20196;-75
2023/06/07 02:55:22;;;;;;;4.43;3.70;;;;;;;13.99;100.00;98146.72;5073848;28;20211;-75
2023/06/07 02:57:49;;;;;;;4.00;3.57;;;;;;;13.97;100.00;98140.78;5074429;28;20212;-75
2023/06/07 03:00:16;;;;;;;4.00;3.70;;;;;;;14.04;100.00;98144.16;5074298;28;20208;-75
2023/06/07 03:02:42;;;;;;;4.53;3.63;;;;;;;13.93;100.00;98136.97;5074006;28;20608;-74
2023/06/07 03:05:09;;;;;;;3.77;3.47;;;;;;;13.96;100.00;98131.16;5074224;28;20220;-75
2023/06/07 03:07:35;;;;;;;4.73;3.83;;;;;;;13.90;100.00;98132.13;5074139;28;20208;-75
2023/06/07 03:10:04;;;;;;;4.40;4.00;;;;;;;14.03;100.00;98136.34;5075068;28;20299;-75
2023/06/07 03:12:30;;;;;;;4.20;3.53;;;;;;;14.14;100.00;98138.16;5073720;28;20209;-75
2023/06/07 03:14:56;;;;;;;3.90;3.60;;;;;;;14.12;100.00;98143.78;5074076;28;20213;-75
2023/06/07 03:17:23;;;;;;;7.43;4.40;;;;;;;14.13;100.00;98136.53;5073955;28;20228;-75
2023/06/07 03:19:49;;;;;;;5.00;3.90;;;;;;;14.05;100.00;98151.09;5073557;28;20687;-75
2023/06/07 03:22:17;;;;;;;4.73;3.77;;;;;;;13.95;100.00;98145.56;5073806;28;20209;-74
2023/06/07 03:24:44;;;;;;;4.00;3.60;;;;;;;14.00;100.00;98147.50;5073667;28;20312;-75
2023/06/07 03:27:11;;;;;;;5.03;3.93;;;;;;;13.93;100.00;98152.22;5073818;28;20224;-75
2023/06/07 03:29:37;;;;;;;4.50;3.50;;;;;;;13.86;100.00;98148.84;5073754;28;20204;-75
2023/06/07 03:32:05;;;;;;;4.77;4.20;;;;;;;13.94;100.00;98143.94;5075254;28;20219;-80
2023/06/07 03:34:33;;;;;;;4.70;4.13;;;;;;;14.09;100.00;98138.88;5075339;28;20257;-80
2023/06/07 03:36:59;;;;;;;3.90;3.60;;;;;;;14.14;100.00;98146.19;5075778;28;20627;-80
2023/06/07 03:39:26;;;;;;;4.37;3.97;;;;;;;14.13;100.00;98147.22;5075510;28;20200;-80
2023/06/07 03:41:52;;;;;;;5.00;4.60;;;;;;;14.13;100.00;98148.06;5076100;28;20291;-80
2023/06/07 03:44:19;;;;;;;4.60;4.10;;;;;;;14.14;100.00;98144.31;5074692;28;20239;-79
2023/06/07 03:46:45;;;;;;;4.93;4.53;;;;;;;13.94;100.00;98148.47;5075932;28;20228;-79
2023/06/07 03:49:11;;;;;;;5.20;4.80;;;;;;;14.01;100.00;98151.81;5075664;28;20294;-79
2023/06/07 03:51:38;;;;;;;7.87;4.50;;;;;;;14.10;100.00;98145.84;5075409;28;20211;-79
2023/06/07 03:54:05;;;;;;;4.13;3.83;;;;;;;14.11;100.00;98150.13;5075972;28;20207;-80
2023/06/07 03:56:31;;;;;;;6.77;4.47;;;;;;;14.12;100.00;98154.47;5075816;28;20256;-80
2023/06/07 03:59:01;;;;;;;4.70;4.30;;;;;;;14.16;100.00;98150.22;5075797;28;20219;-80
2023/06/07 04:01:28;;;;;;;5.03;4.00;;;;;;;14.18;100.00;98147.31;5075670;28;20235;-80
2023/06/07 04:03:54;;;;;;;4.63;4.23;;;;;;;14.27;100.00;98154.78;5075024;28;20221;-80
2023/06/07 04:06:24;;;;;;;5.00;4.40;;;;;;;14.23;100.00;98153.63;5074671;28;20266;-80
2023/06/07 04:08:51;;;;;;;6.73;4.33;;;;;;;14.28;100.00;98151.03;5074306;28;20270;-80
2023/06/07 04:11:19;;;;;;;4.70;4.30;;;;;;;14.25;100.00;98156.84;5074843;28;20683;-80
2023/06/07 04:13:45;;;;;;;7.73;4.47;;;;;;;14.34;100.00;98157.28;5074407;28;20563;-80
2023/06/07 04:16:12;;;;;;;5.67;3.67;;;;;;;14.18;100.00;98150.00;5074410;28;20278;-80
2023/06/07 04:18:38;;;;;;;6.43;4.10;;;;;;;14.23;100.00;98158.97;5074963;28;20207;-80
2023/06/07 04:21:05;;;;;;;5.40;4.27;;;;;;;14.21;100.00;98153.06;5074822;28;20219;-80
2023/06/07 04:23:32;;;;;;;4.83;4.07;;;;;;;14.18;100.00;98145.47;5074863;28;20267;-80
2023/06/07 04:25:59;;;;;;;6.03;4.40;;;;;;;14.17;100.00;98151.88;5074780;28;20240;-80
2023/06/07 04:28:27;;;;;;;4.57;4.13;;;;;;;14.15;100.00;98156.63;5075080;28;20239;-80
2023/06/07 04:30:56;;;;;;;6.47;4.30;;;;;;;14.20;100.00;98159.44;5074478;28;20567;-74
2023/06/07 04:33:23;;;;;;;6.47;4.60;;;;;;;14.36;100.00;98155.19;5072879;28;20199;-75
2023/06/07 04:35:51;;;;;;;5.03;3.97;;;;;;;14.39;100.00;98152.81;5072573;28;20229;-75
2023/06/07 04:38:21;;;;;;;4.93;4.20;;;;;;;14.48;100.00;98154.06;5072977;28;20208;-74
2023/06/07 04:40:48;;;;;;;4.87;4.37;;;;;;;14.51;100.00;98142.09;5072822;28;20253;-75
2023/06/07 04:43:17;;;;;;;5.53;4.50;;;;;;;14.49;100.00;98147.69;5072434;28;20221;-75
2023/06/07 04:45:43;;;;;;;5.37;4.70;;;;;;;14.51;100.00;98147.44;5073130;28;20314;-75
2023/06/07 04:48:11;;;;;;;5.83;4.13;;;;;;;14.67;100.00;98155.47;5072916;28;20207;-75
2023/06/07 04:50:41;;;;;;;5.20;4.70;;;;;;;14.65;100.00;98151.44;5072823;28;20315;-75
2023/06/07 04:53:08;;;;;;;6.73;4.77;;;;;;;14.79;100.00;98158.88;5072263;28;20668;-75
2023/06/07 04:55:36;;;;;;;5.33;4.90;;;;;;;14.84;100.00;98152.81;5073068;28;20303;-75
2023/06/07 04:58:04;;;;;;;6.17;4.90;;;;;;;14.84;100.00;98148.25;5076107;28;20640;-75
2023/06/07 05:00:31;;;;;;;5.50;4.77;;;;;;;14.90;100.00;98154.50;5076125;28;20725;-75
2023/06/07 05:03:06;;;;;;;5.67;4.90;;;;;;;15.03;100.00;98159.53;5076374;28;20242;-74
2023/06/07 05:05:33;;;;;;;6.37;5.30;;;;;;;15.20;100.00;98161.13;5076478;28;20231;-75
2023/06/07 05:07:59;;;;;;;6.83;5.07;;;;;;;15.44;100.00;98165.28;5075827;28;20209;-75
2023/06/07 05:10:26;;;;;;;7.30;4.90;;;;;;;15.92;100.00;98169.94;5075847;28;20675;-75
2023/06/07 05:12:52;;;;;;;5.20;4.60;;;;;;;15.95;100.00;98170.22;5076043;28;20220;-75
2023/06/07 05:15:21;;;;;;;5.93;5.33;;;;;;;16.29;98.30;98173.56;5075954;28;20197;-75
2023/06/07 05:17:48;;;;;;;5.57;4.97;;;;;;;16.63;95.19;98164.28;5075683;28;20216;-75
2023/06/07 05:20:15;;;;;;;5.97;4.73;;;;;;;17.33;89.39;98173.69;5076172;28;20208;-75
2023/06/07 05:22:43;;;;;;;5.60;5.03;;;;;;;17.51;88.17;98170.63;5075374;28;20686;-75
2023/06/07 05:25:11;;;;;;;6.70;4.83;;;;;;;17.49;87.69;98177.31;5076090;28;20208;-75
2023/06/07 05:27:38;;;;;;;5.93;4.80;;;;;;;17.36;88.02;98175.88;5075485;28;20208;-75
2023/06/07 05:30:07;;;;;;;5.40;4.63;;;;;;;16.94;90.57;98174.22;5075884;28;20204;-75
2023/06/07 05:32:34;;;;;;;5.10;4.67;;;;;;;16.84;90.12;98174.13;5075609;28;20737;-75
2023/06/07 05:35:01;;;;;;;6.87;5.13;;;;;;;16.47;93.46;98182.09;5075686;28;20680;-75
2023/06/07 05:37:28;;;;;;;5.00;4.50;;;;;;;16.45;94.66;98176.19;5075669;28;20224;-75
2023/06/07 05:39:54;;;;;;;5.17;4.67;;;;;;;16.25;95.97;98181.31;5075289;28;20571;-75
2023/06/07 05:42:21;;;;;;;5.80;5.17;;;;;;;16.14;97.50;98184.13;5075155;28;20668;-75
2023/06/07 05:44:48;;;;;;;7.63;5.10;;;;;;;16.34;97.74;98182.50;5075423;28;20229;-75
2023/06/07 05:47:16;;;;;;;8.50;4.87;;;;;;;16.32;97.33;98181.91;5075257;28;20232;-75
2023/06/07 05:49:44;;;;;;;5.30;4.80;;;;;;;16.59;94.98;98174.72;5075165;28;20230;-74
2023/06/07 05:52:11;;;;;;;6.40;5.57;;;;;;;16.47;95.58;98171.38;5076886;28;20204;-81
2023/06/07 05:54:48;;;;;;;6.93;5.53;;;;;;;16.62;95.42;98171.53;5078140;28;20201;-80
2023/06/07 05:57:15;;;;;;;6.30;5.77;;;;;;;16.58;95.16;98164.22;5078572;28;20239;-80
2023/06/07 05:59:41;;;;;;;7.13;5.50;;;;;;;16.44;96.92;98171.88;5077744;28;20240;-80
2023/06/07 06:02:08;;;;;;;5.60;5.10;;;;;;;16.53;96.05;98173.06;5076638;28;20215;-81
2023/06/07 06:04:35;;;;;;;5.70;5.20;;;;;;;16.59;96.11;98172.03;5077085;28;20216;-80
2023/06/07 06:07:02;;;;;;;6.10;5.17;;;;;;;16.67;95.88;98173.44;5076815;28;20260;-80
2023/06/07 06:09:29;;;;;;;5.27;4.77;;;;;;;16.76;94.73;98170.03;5076724;28;20228;-80
2023/06/07 06:11:56;;;;;;;5.93;5.30;;;;;;;16.74;95.31;98169.47;5077319;28;20240;-80
2023/06/07 06:14:25;;;;;;;5.73;4.90;;;;;;;16.74;94.94;98168.69;5076812;28;20682;-81
2023/06/07 06:16:51;;;;;;;5.40;4.90;;;;;;;16.88;94.56;98176.03;5077408;28;20584;-81
2023/06/07 06:19:17;;;;;;;5.13;4.60;;;;;;;16.89;95.58;98166.94;5077168;28;20571;-80
2023/06/07 06:21:44;;;;;;;5.50;5.00;;;;;;;16.88;93.62;98170.66;5077368;28;20227;-80
2023/06/07 06:24:10;;;;;;;6.40;5.00;;;;;;;16.98;93.52;98170.78;5076472;28;20680;-81
2023/06/07 06:26:37;;;;;;;6.50;4.70;;;;;;;17.15;91.75;98176.00;5077025;28;20239;-80
2023/06/07 06:29:03;;;;;;;6.53;5.00;;;;;;;16.84;95.41;98172.28;5076497;28;20207;-80
2023/06/07 06:31:29;;;;;;;5.93;5.40;;;;;;;17.21;93.11;98177.66;5077962;28;20205;-77
2023/06/07 06:33:56;;;;;;;5.70;5.30;;;;;;;16.60;94.65;98162.91;5076020;28;20230;-78
2023/06/07 06:36:22;;;;;;;5.87;5.37;;;;;;;16.97;94.55;98162.97;5075820;28;20255;-77
2023/06/07 06:38:50;;;;;;;5.87;5.30;;;;;;;17.19;93.67;98175.22;5075970;28;20212;-78
2023/06/07 06:41:17;;;;;;;8.13;5.80;;;;;;;17.27;92.54;98169.38;5077153;28;20284;-78
2023/06/07 06:43:43;;;;;;;7.10;5.00;;;;;;;17.46;91.94;98172.50;5077993;28;20236;-77
2023/06/07 06:46:14;;;;;;;5.67;5.13;;;;;;;17.56;91.44;98181.41;5076000;28;20567;-76
2023/06/07 06:48:40;;;;;;;7.97;5.97;;;;;;;17.40;91.28;98179.69;5057696;28;20231;-77
2023/06/07 06:51:07;;;;;;;6.10;5.50;;;;;;;17.63;91.08;98173.94;5075341;28;20218;-77
2023/06/07 06:53:37;;;;;;;7.63;5.80;;;;;;;17.75;90.69;98176.41;5075379;28;20219;-77
2023/06/07 06:56:06;;;;;;;6.50;5.20;;;;;;;17.73;90.58;98173.97;5074729;28;20259;-73
2023/06/07 06:58:34;;;;;;;5.37;4.80;;;;;;;17.77;90.88;98169.69;5076542;28;20208;-74
2023/06/07 07:01:05;;;;;;;5.63;4.67;;;;;;;17.93;90.46;98175.94;5075967;28;20567;-73
2023/06/07 07:03:31;;;;;;;7.20;6.47;;;;;;;18.04;88.41;98173.03;5076570;28;20200;-73
2023/06/07 07:06:02;;;;;;;4.57;3.83;;;;;;;18.04;89.08;98178.41;5068389;28;20216;-73
2023/06/07 07:08:28;;;;;;;6.27;4.40;;;;;;;18.19;88.27;98177.66;5065157;28;20207;-73
2023/06/07 07:10:54;;;;;;;4.87;4.43;;;;;;;17.95;87.73;98179.16;5063329;28;20197;-73
2023/06/07 07:13:25;;;;;;;4.83;4.43;;;;;;;18.22;87.88;98180.63;5066066;28;20648;-74
2023/06/07 07:15:51;;;;;;;4.47;4.07;;;;;;;18.22;88.43;98177.94;5065660;28;20660;-73
2023/06/07 07:18:18;;;;;;;4.13;3.73;;;;;;;18.22;87.79;98172.56;5060627;28;20200;-73
2023/06/07 07:20:48;;;;;;;4.83;4.23;;;;;;;18.28;87.29;98178.78;5061944;28;20201;-73
2023/06/07 07:23:14;;;;;;;4.43;4.10;;;;;;;18.56;86.78;98178.34;5062914;28;20205;-73
2023/06/07 07:25:41;;;;;;;3.93;3.63;;;;;;;18.63;86.31;98179.69;5069330;28;20311;-75
2023/06/07 07:28:11;;;;;;;4.40;4.00;;;;;;;18.71;84.40;98181.03;5074367;28;20211;-74
2023/06/07 07:30:37;;;;;;;4.63;3.90;;;;;;;18.75;84.42;98172.19;5074319;28;20312;-75
2023/06/07 07:33:04;;;;;;;3.50;3.20;;;;;;;18.84;84.98;98167.88;5074388;28;20201;-74
2023/06/07 07:35:34;;;;;;;3.63;3.07;;;;;;;19.08;84.10;98176.22;5074128;28;20253;-75
2023/06/07 07:38:02;;;;;;;4.37;3.80;;;;;;;18.96;84.21;98179.16;5068938;28;20236;-75
2023/06/07 07:40:29;;;;;;;4.07;3.70;;;;;;;18.78;82.91;98168.91;5063075;28;20279;-75
2023/06/07 07:42:55;;;;;;;3.67;3.37;;;;;;;18.84;84.14;98170.56;5065690;28;20201;-75
2023/06/07 07:45:21;;;;;;;3.60;3.30;;;;;;;18.84;83.01;98170.56;5065288;28;20227;-75
2023/06/07 07:47:48;;;;;;;4.40;3.20;;;;;;;18.93;83.38;98173.53;5067135;28;20197;-74
2023/06/07 07:50:16;;;;;;;3.33;2.93;;;;;;;19.28;81.40;98173.53;5075742;28;20223;-75
2023/06/07 07:52:43;;;;;;;2.93;2.73;;;;;;;19.45;81.94;98169.47;5075473;28;20714;-75
2023/06/07 07:55:10;;;;;;;4.03;2.97;;;;;;;19.55;80.37;98166.75;5074440;28;20223;-75
2023/06/07 07:57:36;;;;;;;3.17;2.87;;;;;;;19.52;80.36;98170.00;5074737;28;20219;-75
2023/06/07 08:00:04;;;;;;;3.10;2.90;;;;;;;19.68;79.88;98171.56;5075597;28;20574;-76
2023/06/07 08:02:31;;;;;;;4.13;3.43;;;;;;;19.19;80.46;98172.44;5076249;28;20204;-76
2023/06/07 08:04:57;;;;;;;3.00;2.80;;;;;;;19.71;78.40;98178.31;5075060;28;20730;-75
2023/06/07 08:07:23;;;;;;;5.03;2.70;;;;;;;19.93;76.71;98173.38;5075094;28;20719;-76
2023/06/07 08:09:50;;;;;;;2.60;2.40;;;;;;;20.15;75.45;98181.13;5075134;28;20565;-76
2023/06/07 08:12:16;;;;;;;3.40;3.10;;;;;;;19.50;75.96;98172.16;5075860;28;20204;-75
2023/06/07 08:14:42;;;;;;;2.97;2.77;;;;;;;19.78;77.17;98174.22;5076347;28;20204;-76
2023/06/07 08:17:09;;;;;;;6.00;2.90;;;;;;;20.07;74.28;98179.00;5074698;28;20228;-75
2023/06/07 08:19:35;;;;;;;3.13;2.83;;;;;;;19.96;75.43;98164.75;5074733;28;20226;-75
2023/06/07 08:22:01;;;;;;;2.70;2.43;;;;;;;19.98;74.05;98169.88;5075114;28;20597;-75
2023/06/07 08:24:28;;;;;;;2.90;2.70;;;;;;;19.87;73.44;98173.66;5074532;28;20228;-75
2023/06/07 08:26:54;;;;;;;2.70;2.50;;;;;;;19.08;77.12;98165.44;5075743;28;20224;-75
2023/06/07 08:29:21;;;;;;;3.13;2.60;;;;;;;19.55;77.15;98161.34;5074623;28;20238;-76
2023/06/07 08:31:47;;;;;;;3.03;2.33;;;;;;;19.88;76.73;98167.19;5065712;28;20682;-75
2023/06/07 08:34:14;;;;;;;2.50;2.30;;;;;;;20.17;74.93;98162.78;5069870;28;20192;-75
2023/06/07 08:36:40;;;;;;;3.20;2.53;;;;;;;20.36;73.89;98161.06;5066830;28;20228;-76
2023/06/07 08:39:07;;;;;;;2.60;2.40;;;;;;;20.37;72.55;98163.50;5067846;28;20197;-76
2023/06/07 08:41:33;;;;;;;3.80;2.30;;;;;;;20.66;69.80;98163.59;5067757;28;20205;-76
2023/06/07 08:44:00;;;;;;;2.53;2.00;;;;;;;20.33;72.24;98162.44;5070687;28;20249;-76
2023/06/07 08:46:30;;;;;;;2.67;2.17;;;;;;;20.73;70.46;98166.78;5066847;28;20212;-76
2023/06/07 08:48:57;;;;;;;2.50;2.30;;;;;;;19.97;71.71;98163.66;5059259;28;20205;-76
2023/06/07 08:51:25;;;;;;;3.07;2.20;;;;;;;20.33;71.28;98165.13;5058980;28;20220;-76
2023/06/07 08:54:03;;;;;;;3.07;1.93;;;;;;;20.66;70.41;98161.69;5058626;28;20232;-76
2023/06/07 08:56:31;;;;;;;2.80;1.90;;;;;;;21.06;69.39;98166.81;5058899;28;20601;-76
2023/06/07 08:58:58;;;;;;;1.67;1.53;;;;;;;21.10;68.27;98167.03;5061390;28;20204;-74
2023/06/07 09:01:25;;;;;;;1.67;1.57;;;;;;;21.40;67.13;98173.00;5068752;28;20215;-74
2023/06/07 09:03:55;;;;;;;2.87;1.70;;;;;;;21.45;64.78;98164.84;5068684;28;20201;-74
2023/06/07 09:06:22;;;;;;;4.03;1.97;;;;;;;21.59;64.48;98160.38;5077536;28;20235;-74
2023/06/07 09:08:49;;;;;;;3.83;2.30;;;;;;;21.73;65.90;98168.63;5077555;28;20205;-74
2023/06/07 09:11:16;;;;;;;2.30;2.10;;;;;;;20.63;69.20;98173.06;5077564;28;20668;-74
2023/06/07 09:13:43;;;;;;;2.47;1.90;;;;;;;21.25;67.80;98169.63;5079247;28;20212;-74
2023/06/07 09:16:12;;;;;;;3.77;2.30;;;;;;;21.77;65.09;98175.09;5077828;28;20730;-74
2023/06/07 09:18:47;;;;;;;1.60;1.50;;;;;;;22.08;63.68;98170.94;5077390;28;20683;-74
2023/06/07 09:21:22;;;;;;;1.50;1.40;;;;;;;21.84;63.35;98179.03;5077244;28;20295;-74
2023/06/07 09:23:50;;;;;;;2.95;1.50;;;;;;;21.45;65.24;98174.84;5077406;28;20215;-74
2023/06/07 09:26:18;;;;;;;1.63;1.53;;;;;;;21.28;65.53;98175.28;5077470;28;20235;-74
2023/06/07 09:28:46;;;;;;;2.27;1.60;;;;;;;21.22;66.93;98168.31;5077311;28;20211;-73
2023/06/07 09:31:13;;;;;;;2.23;1.53;;;;;;;21.37;65.42;98173.56;5077403;28;20205;-74
2023/06/07 09:33:40;;;;;;;2.03;1.60;;;;;;;21.93;63.33;98168.41;5077527;28;20216;-74
2023/06/07 09:36:11;;;;;;;3.80;1.67;;;;;;;21.93;62.09;98165.72;5077223;28;20242;-74
2023/06/07 09:38:38;;;;;;;2.87;1.40;;;;;;;21.65;60.78;98171.91;5077248;28;20806;-74
2023/06/07 09:41:06;;;;;;;3.37;1.30;;;;;;;21.66;62.31;98170.84;5077416;28;20211;-74
2023/06/07 09:43:50;;;;;;;1.40;1.30;;;;;;;21.82;61.09;98175.03;5076560;28;20205;-74
2023/06/07 09:46:21;;;;;;;1.27;1.17;;;;;;;21.71;60.62;98173.53;5077922;28;20323;-74
2023/06/07 09:48:54;;;;;;;1.33;1.30;;;;;;;21.77;61.55;98169.66;5078343;28;20200;-74
2023/06/07 09:51:21;;;;;;;1.63;1.40;;;;;;;21.50;62.10;98161.25;5077586;28;20261;-74
2023/06/07 09:53:56;;;;;;;1.40;1.30;;;;;;;21.82;60.36;98158.78;5077192;28;20208;-74
2023/06/07 09:56:25;;;;;;;2.40;1.70;;;;;;;22.32;60.80;98153.53;5077446;28;20216;-74
2023/06/07 09:59:07;;;;;;;2.30;1.50;;;;;;;22.36;60.72;98167.31;5076853;28;20254;-74
2023/06/07 10:01:38;;;;;;;1.50;1.40;;;;;;;22.41;59.49;98157.22;5077104;28;20563;-74
2023/06/07 10:04:06;;;;;;;1.70;1.60;;;;;;;22.41;59.10;98159.94;5077124;28;20254;-74
2023/06/07 10:06:34;;;;;;;1.63;1.50;;;;;;;21.33;61.03;98155.47;5077200;28;20276;-74
2023/06/07 10:09:04;;;;;;;1.60;1.50;;;;;;;21.83;59.90;98153.09;5066487;28;20631;-75
2023/06/07 10:11:33;;;;;;;2.05;1.80;;;;;;;21.62;63.32;98159.00;5068631;28;20212;-75
2023/06/07 10:14:15;;;;;;;1.80;1.70;;;;;;;21.11;65.55;98150.53;5069021;28;20193;-75
2023/06/07 10:16:45;;;;;;;2.00;1.60;;;;;;;21.27;66.64;98154.75;5072456;28;20216;-75
2023/06/07 10:19:18;;;;;;;2.53;1.60;;;;;;;21.59;64.41;98152.25;5076710;28;20620;-73
2023/06/07 10:21:48;;;;;;;1.90;1.80;;;;;;;21.35;64.80;98147.91;5076237;28;20193;-73
2023/06/07 10:24:21;;;;;;;1.90;1.70;;;;;;;21.68;62.66;98152.41;5076341;28;20212;-74
2023/06/07 10:26:56;;;;;;;2.40;2.00;;;;;;;21.93;60.32;98149.47;5075807;28;20270;-74
2023/06/07 10:29:41;;;;;;;2.13;1.70;;;;;;;21.88;61.29;98147.59;5066998;28;20660;-74
2023/06/07 10:32:13;;;;;;;1.92;1.83;;;;;;;22.54;60.42;98145.69;5066844;28;20211;-74
2023/06/07 10:34:41;;;;;;;2.45;2.05;;;;;;;22.70;57.31;98143.56;5069090;28;20598;-74
2023/06/07 10:37:08;;;;;;;3.60;1.67;;;;;;;23.13;57.69;98134.97;5068297;28;20232;-75
2023/06/07 10:39:38;;;;;;;1.70;1.60;;;;;;;22.62;56.42;98136.91;5064422;28;20197;-75
2023/06/07 10:42:05;;;;;;;1.80;1.70;;;;;;;23.26;55.55;98139.66;5066065;28;20220;-74
2023/06/07 10:44:32;;;;;;;1.90;1.80;;;;;;;23.54;54.44;98132.34;5074374;28;20200;-75
2023/06/07 10:47:23;;;;;;;1.80;1.70;;;;;;;23.24;51.77;98125.56;5073997;28;20711;-75
2023/06/07 10:49:50;;;;;;;3.17;2.45;;;;;;;22.39;53.71;98126.09;5074208;28;20211;-74
2023/06/07 10:52:17;;;;;;;3.30;1.88;;;;;;;23.32;52.96;98122.19;5074363;28;20212;-75
2023/06/07 10:54:45;;;;;;;2.03;1.75;;;;;;;22.24;55.31;98118.97;5074260;28;20204;-74
2023/06/07 10:57:11;;;;;;;1.83;1.73;;;;;;;22.80;57.09;98121.72;5074136;28;20228;-74
2023/06/07 10:59:39;;;;;;;1.73;1.63;;;;;;;23.69;56.42;98119.31;5074524;28;20212;-74
2023/06/07 11:02:20;;;;;;;3.00;1.70;;;;;;;23.74;54.78;98116.50;5074038;28;20205;-74
2023/06/07 11:04:49;;;;;;;1.95;1.80;;;;;;;23.10;55.47;98116.56;5074089;28;20204;-73
2023/06/07 11:07:17;;;;;;;1.83;1.73;;;;;;;21.99;57.95;98129.34;5073882;28;20220;-73
2023/06/07 11:09:43;;;;;;;1.70;1.60;;;;;;;21.69;58.82;98129.66;5073753;28;20205;-73
2023/06/07 11:12:30;;;;;;;1.83;1.73;;;;;;;22.73;57.52;98121.25;5073856;28;20205;-73
2023/06/07 11:15:20;;;;;;;2.42;1.95;;;;;;;23.41;56.57;98119.56;5073345;28;20262;-73
2023/06/07 11:17:53;;;;;;;3.03;1.70;;;;;;;23.31;56.49;98122.47;5073948;28;20200;-75
2023/06/07 11:20:38;;;;;;;1.70;1.60;;;;;;;23.36;57.08;98109.63;5073751;28;20209;-74
2023/06/07 11:23:27;;;;;;;1.73;1.63;;;;;;;23.93;55.97;98103.63;5073546;28;20212;-74
2023/06/07 11:26:00;;;;;;;1.80;1.70;;;;;;;23.95;53.70;98111.47;5073713;28;20589;-74
2023/06/07 11:28:31;;;;;;;1.50;1.50;;;;;;;23.84;54.91;98118.22;5073306;28;20204;-73
2023/06/07 11:30:59;;;;;;;1.70;1.60;;;;;;;23.35;55.24;98118.06;5073361;28;20730;-74
2023/06/07 11:33:26;;;;;;;1.77;1.67;;;;;;;22.87;56.42;98120.22;5073581;28;20621;-73
2023/06/07 11:35:53;;;;;;;1.73;1.60;;;;;;;22.63;57.02;98116.00;5073662;28;20220;-73